createdAt,value
2018-11-02T00:01:07.764Z,4.60
2018-11-02T00:03:36.280Z,4.60
2018-11-02T00:06:04.832Z,4.23
2018-11-02T00:08:33.283Z,4.17
2018-11-02T00:11:01.757Z,4.47
2018-11-02T00:13:30.279Z,3.77
2018-11-02T00:15:58.739Z,4.63
2018-11-02T00:18:27.232Z,4.57
2018-11-02T00:20:55.671Z,4.07
2018-11-02T00:23:24.158Z,4.23
2018-11-02T00:25:52.647Z,4.90
2018-11-02T00:28:21.067Z,4.37
2018-11-02T00:30:49.576Z,4.10
2018-11-02T00:33:18.053Z,3.77
2018-11-02T00:35:46.583Z,3.93
2018-11-02T00:38:15.030Z,3.80
2018-11-02T00:40:43.525Z,3.47
2018-11-02T00:43:12.007Z,3.23
2018-11-02T00:45:40.458Z,3.50
2018-11-02T00:48:08.864Z,3.30
2018-11-02T00:50:37.334Z,3.53
2018-11-02T00:53:06.188Z,3.20
2018-11-02T00:55:34.684Z,3.73
2018-11-02T00:58:03.088Z,2.80
2018-11-02T01:00:31.556Z,3.33
2018-11-02T01:02:59.981Z,3.30
2018-11-02T01:05:28.404Z,3.17
2018-11-02T01:07:56.802Z,3.60
2018-11-02T01:10:25.243Z,3.10
2018-11-02T01:12:53.659Z,3.17
2018-11-02T01:15:22.083Z,3.20
2018-11-02T01:17:50.907Z,3.23
2018-11-02T01:20:19.384Z,3.17
2018-11-02T01:22:47.806Z,2.80
2018-11-02T01:25:16.292Z,2.97
2018-11-02T01:27:44.727Z,2.23
2018-11-02T01:30:13.220Z,2.20
2018-11-02T01:32:41.686Z,1.90
2018-11-02T01:35:10.282Z,2.47
2018-11-02T01:37:39.015Z,2.27
2018-11-02T01:40:08.306Z,2.07
2018-11-02T01:42:36.928Z,2.10
2018-11-02T01:45:05.428Z,2.10
2018-11-02T01:47:33.917Z,2.07
2018-11-02T01:50:02.377Z,1.90
2018-11-02T01:52:30.838Z,2.10
2018-11-02T01:54:59.386Z,1.93
2018-11-02T01:57:27.843Z,1.77
2018-11-02T01:59:56.298Z,1.60
2018-11-02T02:02:24.784Z,1.90
2018-11-02T02:04:53.266Z,1.50
2018-11-02T02:07:21.748Z,1.37
2018-11-02T02:09:50.216Z,1.80
2018-11-02T02:12:18.709Z,2.10
2018-11-02T02:14:47.229Z,1.50
2018-11-02T02:17:15.710Z,1.50
2018-11-02T02:19:44.125Z,1.60
2018-11-02T02:22:12.585Z,1.37
2018-11-02T02:24:41.066Z,1.40
2018-11-02T02:27:09.529Z,1.80
2018-11-02T02:29:37.997Z,1.63
2018-11-02T02:32:06.495Z,1.87
2018-11-02T02:34:34.964Z,2.07
2018-11-02T02:37:03.405Z,1.90
2018-11-02T02:39:31.784Z,2.17
2018-11-02T02:42:00.236Z,2.37
2018-11-02T02:44:28.688Z,2.20
2018-11-02T02:46:57.122Z,2.27
2018-11-02T02:49:25.570Z,2.03
2018-11-02T02:51:54.054Z,2.47
2018-11-02T02:54:22.509Z,1.73
2018-11-02T02:56:50.990Z,2.20
2018-11-02T02:59:19.468Z,1.70
2018-11-02T03:01:47.966Z,1.70
2018-11-02T03:04:16.431Z,1.90
2018-11-02T03:06:44.904Z,2.20
2018-11-02T03:09:13.401Z,1.90
2018-11-02T03:11:41.867Z,2.20
2018-11-02T03:14:10.366Z,1.83
2018-11-02T03:16:38.769Z,2.57
2018-11-02T03:19:07.300Z,2.30
2018-11-02T03:21:35.740Z,2.40
2018-11-02T03:24:04.166Z,3.00
2018-11-02T03:26:32.603Z,2.83
2018-11-02T03:29:01.024Z,3.43
2018-11-02T03:31:29.476Z,2.93
2018-11-02T03:33:57.920Z,3.87
2018-11-02T03:36:26.344Z,2.87
2018-11-02T03:38:54.779Z,3.40
2018-11-02T03:41:23.265Z,3.20
2018-11-02T03:43:51.705Z,3.33
2018-11-02T03:46:20.148Z,3.33
2018-11-02T03:48:48.587Z,3.20
2018-11-02T03:51:17.127Z,4.10
2018-11-02T03:53:45.621Z,3.63
2018-11-02T03:56:14.153Z,4.00
2018-11-02T03:58:42.569Z,4.13
2018-11-02T04:01:11.055Z,4.10
2018-11-02T04:03:39.571Z,3.73
2018-11-02T04:06:08.190Z,4.27
2018-11-02T04:08:36.713Z,4.03
2018-11-02T04:11:05.235Z,4.40
2018-11-02T04:13:33.668Z,4.87
2018-11-02T04:16:02.095Z,4.60
2018-11-02T04:18:30.744Z,5.10
2018-11-02T04:20:59.150Z,5.00
2018-11-02T04:23:27.618Z,5.27
2018-11-02T04:25:56.060Z,5.47
2018-11-02T04:28:24.527Z,6.27
2018-11-02T04:30:52.994Z,6.40
2018-11-02T04:33:21.388Z,5.63
2018-11-02T04:35:49.831Z,6.30
2018-11-02T04:38:18.331Z,6.07
2018-11-02T04:40:46.846Z,6.70
2018-11-02T04:43:15.291Z,7.43
2018-11-02T04:45:43.719Z,6.77
2018-11-02T04:48:13.197Z,6.67
2018-11-02T04:50:42.127Z,6.63
2018-11-02T04:53:10.610Z,7.40
2018-11-02T04:55:39.166Z,6.90
2018-11-02T04:58:07.741Z,6.93
2018-11-02T05:00:36.283Z,6.93
2018-11-02T05:03:05.186Z,6.87
2018-11-02T05:05:33.766Z,6.43
2018-11-02T05:08:02.361Z,6.83
2018-11-02T05:10:30.829Z,7.23
2018-11-02T05:12:59.297Z,6.77
2018-11-02T05:15:27.759Z,7.10
2018-11-02T05:17:56.226Z,7.60
2018-11-02T05:20:24.704Z,7.00
2018-11-02T05:22:53.257Z,7.47
2018-11-02T05:25:21.735Z,7.43
2018-11-02T05:27:50.200Z,8.33
2018-11-02T05:30:18.720Z,7.63
2018-11-02T05:32:47.214Z,7.90
2018-11-02T05:35:15.679Z,7.07
2018-11-02T05:37:44.261Z,8.03
2018-11-02T05:40:12.796Z,8.07
2018-11-02T05:42:41.275Z,8.20
2018-11-02T05:45:09.764Z,8.47
2018-11-02T05:47:38.235Z,8.73
2018-11-02T05:50:06.936Z,7.53
2018-11-02T05:52:35.385Z,8.43
2018-11-02T05:55:03.871Z,8.30
2018-11-02T05:57:32.427Z,7.57
2018-11-02T06:00:00.959Z,8.00
2018-11-02T06:02:29.417Z,7.97
2018-11-02T06:04:58.842Z,9.00
2018-11-02T06:07:27.370Z,7.67
2018-11-02T06:09:55.922Z,8.20
2018-11-02T06:12:24.689Z,8.50
2018-11-02T06:14:53.284Z,8.93
2018-11-02T06:17:21.833Z,8.80
2018-11-02T06:19:50.583Z,9.10
2018-11-02T06:22:19.175Z,7.13
2018-11-02T06:24:47.637Z,7.47
2018-11-02T06:27:16.264Z,7.53
2018-11-02T06:29:44.867Z,7.53
2018-11-02T06:32:13.471Z,8.23
2018-11-02T06:34:41.960Z,8.13
2018-11-02T06:37:10.441Z,8.30
2018-11-02T06:39:38.955Z,8.30
2018-11-02T06:42:07.563Z,9.43
2018-11-02T06:44:36.183Z,8.90
2018-11-02T06:47:04.745Z,8.77
2018-11-02T06:49:33.360Z,9.43
2018-11-02T06:52:01.983Z,8.97
2018-11-02T06:54:30.494Z,9.20
2018-11-02T06:56:59.147Z,8.87
2018-11-02T06:59:27.690Z,9.40
2018-11-02T07:01:56.235Z,8.90
2018-11-02T07:04:24.811Z,8.47
2018-11-02T07:06:53.326Z,8.90
2018-11-02T07:09:21.806Z,9.60
2018-11-02T07:11:50.341Z,9.63
2018-11-02T07:14:18.923Z,8.73
2018-11-02T07:16:47.426Z,8.03
2018-11-02T07:19:16.057Z,9.43
2018-11-02T07:21:44.500Z,8.63
2018-11-02T07:24:12.987Z,8.37
2018-11-02T07:26:41.465Z,8.63
2018-11-02T07:29:10.352Z,8.03
2018-11-02T07:31:38.852Z,8.67
2018-11-02T07:34:07.850Z,8.70
2018-11-02T07:36:36.359Z,8.53
2018-11-02T07:39:07.247Z,8.33
2018-11-02T07:41:35.990Z,8.83
2018-11-02T07:44:04.623Z,9.27
2018-11-02T07:46:33.272Z,8.43
2018-11-02T07:49:01.854Z,8.53
2018-11-02T07:51:30.433Z,8.23
2018-11-02T07:53:59.058Z,7.97
2018-11-02T07:56:27.670Z,7.77
2018-11-02T07:58:56.319Z,8.27
2018-11-02T08:01:25.101Z,7.87
2018-11-02T08:03:53.662Z,7.77
2018-11-02T08:06:22.277Z,8.87
2018-11-02T08:08:51.001Z,9.13
2018-11-02T08:11:19.534Z,8.30
2018-11-02T08:13:48.011Z,8.43
2018-11-02T08:16:16.633Z,8.37
2018-11-02T08:18:45.208Z,9.00
2018-11-02T08:21:13.897Z,9.17
2018-11-02T08:23:42.366Z,8.33
2018-11-02T08:26:10.975Z,8.77
2018-11-02T08:28:39.557Z,8.13
2018-11-02T08:31:08.092Z,8.30
2018-11-02T08:33:36.615Z,8.67
2018-11-02T08:36:05.352Z,7.87
2018-11-02T08:38:34.101Z,8.27
2018-11-02T08:41:02.642Z,9.70
2018-11-02T08:43:31.199Z,8.60
2018-11-02T08:45:59.731Z,8.87
2018-11-02T08:48:28.287Z,8.97
2018-11-02T08:50:56.857Z,9.73
2018-11-02T08:53:26.035Z,8.67
2018-11-02T08:55:55.786Z,9.90
2018-11-02T08:58:24.528Z,9.90
2018-11-02T09:00:52.892Z,10.43
2018-11-02T09:03:21.461Z,10.37
2018-11-02T09:05:50.112Z,10.07
2018-11-02T09:08:18.786Z,9.10
2018-11-02T09:10:47.345Z,9.97
2018-11-02T09:13:15.990Z,10.00
2018-11-02T09:15:44.529Z,8.63
2018-11-02T09:18:13.081Z,9.83
2018-11-02T09:20:41.647Z,9.30
2018-11-02T09:23:10.226Z,9.80
2018-11-02T09:25:38.720Z,8.10
2018-11-02T09:28:07.426Z,9.90
2018-11-02T09:30:35.941Z,8.67
2018-11-02T09:33:04.512Z,8.47
2018-11-02T09:35:33.111Z,8.73
2018-11-02T09:38:01.680Z,9.30
2018-11-02T09:40:30.467Z,8.83
2018-11-02T09:42:59.029Z,9.47
2018-11-02T09:45:27.638Z,8.40
2018-11-02T09:47:56.283Z,9.17
2018-11-02T09:50:24.931Z,8.33
2018-11-02T09:52:53.545Z,8.70
2018-11-02T09:55:22.301Z,8.53
2018-11-02T09:57:51.000Z,9.73
2018-11-02T10:00:19.611Z,9.43
2018-11-02T10:02:48.212Z,9.20
2018-11-02T10:05:16.753Z,7.87
2018-11-02T10:07:45.367Z,8.70
2018-11-02T10:10:13.960Z,10.90
2018-11-02T10:12:42.553Z,10.17
2018-11-02T10:15:14.012Z,8.80
2018-11-02T10:17:42.588Z,9.13
2018-11-02T10:20:11.870Z,9.03
2018-11-02T10:22:40.524Z,9.50
2018-11-02T10:25:10.430Z,10.87
2018-11-02T10:27:40.329Z,9.17
2018-11-02T10:30:13.444Z,9.57
2018-11-02T10:32:46.194Z,9.20
2018-11-02T10:35:14.802Z,9.10
2018-11-02T10:37:43.307Z,7.93
2018-11-02T10:40:15.462Z,7.50
2018-11-02T10:42:45.257Z,7.77
2018-11-02T10:45:13.879Z,7.47
2018-11-02T10:47:42.484Z,7.87
2018-11-02T10:50:11.007Z,8.93
2018-11-02T10:52:39.502Z,7.93
2018-11-02T10:55:08.138Z,8.07
2018-11-02T10:57:36.723Z,7.83
2018-11-02T11:00:08.069Z,9.57
2018-11-02T11:02:37.452Z,7.77
2018-11-02T11:05:07.434Z,8.37
2018-11-02T11:07:36.111Z,8.07
2018-11-02T11:10:05.897Z,7.30
2018-11-02T11:12:34.468Z,6.97
2018-11-02T11:15:02.948Z,6.90
2018-11-02T11:17:31.473Z,6.93
2018-11-02T11:20:00.004Z,7.93
2018-11-02T11:22:28.676Z,6.70
2018-11-02T11:24:57.667Z,6.33
2018-11-02T11:27:26.248Z,6.80
2018-11-02T11:29:54.887Z,6.73
2018-11-02T11:32:23.460Z,4.87
2018-11-02T11:34:52.101Z,5.03
2018-11-02T11:37:20.622Z,4.80
2018-11-02T11:39:49.243Z,5.40
2018-11-02T11:42:17.720Z,5.57
2018-11-02T11:44:46.319Z,5.70
2018-11-02T11:47:14.939Z,5.77
2018-11-02T11:49:43.433Z,6.83
2018-11-02T11:52:11.958Z,5.47
2018-11-02T11:54:40.612Z,6.37
2018-11-02T11:57:08.974Z,5.47
2018-11-02T11:59:37.408Z,7.47
2018-11-02T12:02:06.008Z,5.73
2018-11-02T12:04:34.690Z,4.40
2018-11-02T12:07:03.333Z,5.20
2018-11-02T12:09:32.004Z,5.60
2018-11-02T12:12:00.604Z,5.80
2018-11-02T12:14:29.268Z,5.57
2018-11-02T12:16:57.843Z,4.53
2018-11-02T12:19:26.520Z,5.00
2018-11-02T12:21:55.346Z,5.20
2018-11-02T12:24:25.356Z,5.60
2018-11-02T12:26:53.965Z,4.63
2018-11-02T12:29:22.518Z,4.80
2018-11-02T12:31:51.020Z,3.57
2018-11-02T12:34:19.692Z,3.30
2018-11-02T12:36:48.241Z,4.10
2018-11-02T12:39:17.048Z,4.87
2018-11-02T12:41:45.800Z,4.60
2018-11-02T12:44:15.227Z,5.33
2018-11-02T12:46:44.964Z,4.83
2018-11-02T12:49:14.451Z,3.83
2018-11-02T12:51:43.235Z,3.60
2018-11-02T12:54:11.829Z,3.50
2018-11-02T12:56:40.471Z,3.83
2018-11-02T12:59:09.051Z,3.80
2018-11-02T13:01:37.723Z,3.67
2018-11-02T13:04:06.763Z,3.63
2018-11-02T13:06:35.419Z,4.27
2018-11-02T13:09:05.117Z,4.10
2018-11-02T13:11:33.730Z,4.23
2018-11-02T13:14:02.367Z,3.90
2018-11-02T13:16:31.001Z,4.27
2018-11-02T13:18:59.759Z,4.47
2018-11-02T13:21:28.301Z,4.67
2018-11-02T13:23:56.908Z,4.53
2018-11-02T13:26:25.444Z,4.93
2018-11-02T13:28:54.090Z,5.57
2018-11-02T13:31:22.817Z,5.23
2018-11-02T13:36:36.617Z,4.70
2018-11-02T13:39:07.988Z,4.60
2018-11-02T13:41:36.563Z,4.43
2018-11-02T13:44:05.258Z,3.83
2018-11-02T13:46:33.984Z,4.13
2018-11-02T13:49:02.528Z,4.80
2018-11-02T13:51:31.074Z,4.70
2018-11-02T13:53:59.675Z,4.17
2018-11-02T13:56:28.260Z,3.87
2018-11-02T13:58:57.100Z,4.37
2018-11-02T14:01:25.977Z,4.07
2018-11-02T14:03:54.522Z,3.83
2018-11-02T14:06:23.172Z,3.57
2018-11-02T14:08:51.680Z,4.30
2018-11-02T14:11:20.303Z,3.50
2018-11-02T14:13:48.891Z,3.80
2018-11-02T14:16:17.428Z,3.73
2018-11-02T14:18:46.127Z,3.87
2018-11-02T14:21:14.805Z,5.20
2018-11-02T14:23:43.496Z,5.10
2018-11-02T14:26:12.062Z,4.40
2018-11-02T14:28:40.618Z,3.53
2018-11-02T14:31:09.167Z,4.27
2018-11-02T14:33:37.659Z,3.13
2018-11-02T14:36:06.213Z,3.20
2018-11-02T14:38:34.796Z,3.80
2018-11-02T14:41:03.506Z,3.30
2018-11-02T14:43:31.930Z,2.87
2018-11-02T14:46:00.523Z,2.97
2018-11-02T14:48:29.090Z,2.47
2018-11-02T14:50:57.683Z,2.60
2018-11-02T14:53:26.461Z,3.03
2018-11-02T14:55:55.111Z,3.00
2018-11-02T14:58:23.770Z,2.53
2018-11-02T15:00:52.513Z,2.90
2018-11-02T15:03:21.110Z,2.90
2018-11-02T15:05:50.455Z,2.67
2018-11-02T15:08:19.164Z,2.30
2018-11-02T15:10:48.117Z,3.17
2018-11-02T15:13:16.804Z,2.60
2018-11-02T15:15:45.343Z,2.70
2018-11-02T15:18:14.575Z,2.47
2018-11-02T15:20:43.205Z,3.03
2018-11-02T15:23:11.956Z,2.80
2018-11-02T15:25:40.604Z,3.40
2018-11-02T15:28:09.272Z,3.30
2018-11-02T15:30:37.894Z,3.47
2018-11-02T15:33:07.045Z,3.17
2018-11-02T15:35:35.709Z,4.13
2018-11-02T15:38:04.276Z,3.40
2018-11-02T15:40:32.896Z,3.30
2018-11-02T15:43:01.519Z,2.70
2018-11-02T15:45:30.095Z,2.50
2018-11-02T15:47:58.931Z,3.13
2018-11-02T15:50:27.468Z,2.87
2018-11-02T15:52:55.965Z,2.00
2018-11-02T15:55:24.530Z,2.70
2018-11-02T15:57:53.082Z,2.43
2018-11-02T16:00:21.634Z,2.40
2018-11-02T16:02:51.437Z,2.40
2018-11-02T16:05:20.146Z,2.57
2018-11-02T16:07:48.795Z,2.60
2018-11-02T16:10:17.335Z,2.50
2018-11-02T16:12:45.950Z,2.77
2018-11-02T16:15:14.497Z,2.47
2018-11-02T16:17:43.114Z,3.50
2018-11-02T16:20:13.688Z,2.90
2018-11-02T16:22:42.641Z,3.03
2018-11-02T16:25:11.225Z,3.37
2018-11-02T16:27:39.916Z,2.77
2018-11-02T16:30:09.035Z,4.50
2018-11-02T16:32:37.525Z,3.67
2018-11-02T16:35:06.993Z,3.53
2018-11-02T16:37:35.545Z,3.20
2018-11-02T16:40:04.543Z,2.27
2018-11-02T16:42:33.076Z,2.97
2018-11-02T16:45:01.683Z,3.33
2018-11-02T16:47:30.288Z,3.30
2018-11-02T16:49:58.995Z,3.40
2018-11-02T16:52:27.565Z,3.17
2018-11-02T16:54:56.091Z,2.50
2018-11-02T16:57:26.114Z,2.53
2018-11-02T16:59:54.595Z,2.70
2018-11-02T17:02:23.226Z,3.00
2018-11-02T17:04:51.807Z,4.00
2018-11-02T17:07:20.404Z,3.67
2018-11-02T17:09:49.006Z,3.17
2018-11-02T17:12:17.650Z,2.53
2018-11-02T17:14:46.245Z,2.60
2018-11-02T17:17:14.788Z,2.20
2018-11-02T17:19:43.387Z,2.80
2018-11-02T17:22:12.110Z,2.50
2018-11-02T17:24:40.619Z,2.40
2018-11-02T17:27:09.133Z,5.53
2018-11-02T17:29:37.710Z,3.27
2018-11-02T17:32:06.429Z,2.90
2018-11-02T17:34:35.052Z,3.30
2018-11-02T17:37:03.718Z,3.00
2018-11-02T17:39:32.318Z,3.23
2018-11-02T17:42:00.886Z,3.10
2018-11-02T17:44:29.476Z,2.67
2018-11-02T17:46:58.123Z,3.00
2018-11-02T17:49:26.744Z,3.87
2018-11-02T17:51:55.388Z,3.90
2018-11-02T17:54:24.081Z,4.20
2018-11-02T17:56:52.600Z,2.70
2018-11-02T17:59:21.327Z,3.20
2018-11-02T18:01:50.005Z,4.00
2018-11-02T18:04:18.566Z,3.33
2018-11-02T18:06:47.363Z,3.20
2018-11-02T18:09:15.986Z,3.50
2018-11-02T18:11:44.591Z,3.67
2018-11-02T18:14:13.135Z,4.00
2018-11-02T18:16:41.645Z,3.47
2018-11-02T18:19:10.206Z,4.27
2018-11-02T18:21:38.794Z,3.83
2018-11-02T18:24:07.600Z,4.00
2018-11-02T18:26:36.036Z,4.20
2018-11-02T18:29:04.648Z,4.10
2018-11-02T18:31:33.150Z,3.50
2018-11-02T18:34:01.677Z,4.10
2018-11-02T18:39:22.829Z,5.00
2018-11-02T18:41:51.400Z,4.93
2018-11-02T18:44:20.129Z,4.60
2018-11-02T18:46:48.867Z,4.83
2018-11-02T18:49:17.564Z,5.83
2018-11-02T18:51:46.248Z,5.13
2018-11-02T18:54:15.073Z,5.23
2018-11-02T18:56:43.610Z,4.87
2018-11-02T18:59:12.271Z,6.10
2018-11-02T19:01:40.828Z,4.47
2018-11-02T19:04:09.464Z,6.43
2018-11-02T19:06:38.101Z,8.00
2018-11-02T19:09:09.071Z,6.37
2018-11-02T19:11:38.759Z,7.20
2018-11-02T19:14:07.459Z,8.07
2018-11-02T19:16:36.080Z,5.50
2018-11-02T19:19:04.752Z,5.27
2018-11-02T19:21:33.362Z,5.60
2018-11-02T19:24:01.913Z,5.70
2018-11-02T19:26:30.485Z,5.97
2018-11-02T19:28:59.132Z,6.73
2018-11-02T19:31:27.751Z,7.37
2018-11-02T19:33:56.287Z,5.63
2018-11-02T19:36:24.824Z,5.60
2018-11-02T19:38:53.331Z,6.37
2018-11-02T19:41:21.913Z,6.23
2018-11-02T19:43:50.865Z,5.70
2018-11-02T19:46:19.496Z,6.47
2018-11-02T19:48:48.057Z,6.47
2018-11-02T19:51:16.737Z,7.13
2018-11-02T19:53:45.311Z,6.20
2018-11-02T19:56:13.850Z,5.80
2018-11-02T19:58:42.382Z,7.13
2018-11-02T20:01:11.173Z,7.43
2018-11-02T20:03:39.528Z,6.30
2018-11-02T20:06:08.059Z,7.00
2018-11-02T20:08:36.568Z,6.87
2018-11-02T20:11:05.295Z,6.50
2018-11-02T20:13:33.803Z,7.50
2018-11-02T20:16:02.372Z,7.67
2018-11-02T20:18:30.929Z,7.17
2018-11-02T20:20:59.512Z,6.87
2018-11-02T20:23:28.127Z,6.90
2018-11-02T20:25:56.899Z,6.80
2018-11-02T20:28:25.726Z,8.53
2018-11-02T20:30:54.267Z,7.47
2018-11-02T20:33:22.807Z,7.60
2018-11-02T20:35:51.370Z,8.17
2018-11-02T20:38:19.916Z,6.93
2018-11-02T20:40:48.460Z,9.40
2018-11-02T20:43:17.090Z,8.40
2018-11-02T20:45:45.582Z,8.50
2018-11-02T20:48:14.098Z,8.03
2018-11-02T20:50:42.584Z,8.50
2018-11-02T20:53:11.168Z,9.53
2018-11-02T20:55:39.785Z,9.27
2018-11-02T20:58:08.314Z,7.60
2018-11-02T21:00:36.790Z,8.77
2018-11-02T21:03:05.591Z,9.73
2018-11-02T21:05:34.200Z,10.47
2018-11-02T21:08:02.815Z,10.47
2018-11-02T21:10:31.217Z,10.70
2018-11-02T21:12:59.719Z,10.80
2018-11-02T21:15:28.220Z,10.60
2018-11-02T21:17:56.779Z,10.10
2018-11-02T21:20:26.138Z,9.63
2018-11-02T21:22:54.613Z,9.10
2018-11-02T21:25:23.206Z,10.10
2018-11-02T21:27:51.704Z,10.80
2018-11-02T21:30:21.804Z,12.00
2018-11-02T21:32:50.992Z,13.27
2018-11-02T21:35:20.170Z,11.20
2018-11-02T21:37:49.464Z,10.80
2018-11-02T21:40:19.206Z,12.73
2018-11-02T21:42:47.715Z,11.00
2018-11-02T21:45:17.576Z,12.40
2018-11-02T21:47:46.299Z,11.57
2018-11-02T21:50:15.517Z,10.97
2018-11-02T21:52:44.122Z,9.43
2018-11-02T21:55:12.663Z,9.43
2018-11-02T21:57:41.227Z,10.33
2018-11-02T22:00:11.966Z,10.87
2018-11-02T22:02:40.731Z,10.43
2018-11-02T22:05:10.439Z,10.57
2018-11-02T22:07:38.903Z,10.40
2018-11-02T22:10:08.543Z,10.40
2018-11-02T22:12:37.613Z,10.73
2018-11-02T22:15:06.475Z,10.03
2018-11-02T22:17:34.979Z,9.70
2018-11-02T22:20:03.440Z,9.27
2018-11-02T22:22:32.115Z,10.13
2018-11-02T22:25:00.588Z,10.40
2018-11-02T22:27:29.169Z,10.97
2018-11-02T22:29:57.645Z,10.53
2018-11-02T22:32:26.195Z,9.93
2018-11-02T22:34:54.671Z,10.67
2018-11-02T22:37:23.231Z,11.00
2018-11-02T22:39:51.700Z,10.30
2018-11-02T22:42:20.244Z,10.47
2018-11-02T22:44:48.759Z,11.57
2018-11-02T22:47:17.304Z,11.50
2018-11-02T22:49:45.806Z,11.57
2018-11-02T22:52:14.340Z,11.77
2018-11-02T22:54:42.852Z,10.53
2018-11-02T22:57:11.343Z,11.43
2018-11-02T22:59:39.879Z,11.77
2018-11-02T23:02:08.430Z,11.87
2018-11-02T23:04:36.915Z,12.47
2018-11-02T23:07:05.532Z,11.70
2018-11-02T23:09:34.061Z,11.87
2018-11-02T23:12:02.626Z,11.60
2018-11-02T23:14:31.374Z,12.00
2018-11-02T23:17:00.011Z,11.37
2018-11-02T23:19:28.526Z,11.57
2018-11-02T23:21:57.044Z,10.30
2018-11-02T23:24:25.749Z,10.57
2018-11-02T23:26:54.296Z,11.17
2018-11-02T23:29:22.821Z,9.73
2018-11-02T23:31:51.345Z,10.30
2018-11-02T23:34:19.866Z,11.77
2018-11-02T23:36:48.401Z,10.00
2018-11-02T23:39:16.898Z,9.07
2018-11-02T23:41:45.423Z,9.33
2018-11-02T23:44:13.892Z,10.40
2018-11-02T23:46:42.414Z,9.60
2018-11-02T23:49:10.957Z,9.97
2018-11-02T23:51:39.513Z,10.63
2018-11-02T23:54:08.040Z,10.07
2018-11-02T23:56:37.438Z,10.33
2018-11-02T23:59:06.343Z,9.90
